createdAt,value
2023-04-03T00:00:35.608Z,6.41
2023-04-03T00:03:03.546Z,6.37
2023-04-03T00:05:30.972Z,6.56
2023-04-03T00:07:58.302Z,6.88
2023-04-03T00:10:25.959Z,7.34
2023-04-03T00:12:53.339Z,7.37
2023-04-03T00:15:20.759Z,6.74
2023-04-03T00:17:48.382Z,6.86
2023-04-03T00:20:16.376Z,7.24
2023-04-03T00:22:43.723Z,7.27
2023-04-03T00:25:11.359Z,6.90
2023-04-03T00:27:39.225Z,6.61
2023-04-03T00:30:07.868Z,6.17
2023-04-03T00:32:35.556Z,6.75
2023-04-03T00:35:03.240Z,6.48
2023-04-03T00:37:30.594Z,5.99
2023-04-03T00:39:58.246Z,7.02
2023-04-03T00:42:25.606Z,6.42
2023-04-03T00:44:58.956Z,6.66
2023-04-03T00:47:27.144Z,6.44
2023-04-03T00:49:54.485Z,6.63
2023-04-03T00:52:23.616Z,6.72
2023-04-03T00:54:51.488Z,6.25
2023-04-03T00:57:18.856Z,7.24
2023-04-03T00:59:49.603Z,6.37
2023-04-03T01:02:17.339Z,6.85
2023-04-03T01:04:44.721Z,6.53
2023-04-03T01:07:20.956Z,6.84
2023-04-03T01:09:48.960Z,6.50
2023-04-03T01:12:28.676Z,6.59
2023-04-03T01:15:07.559Z,6.77
2023-04-03T01:17:38.979Z,6.79
2023-04-03T01:20:37.879Z,6.51
2023-04-03T01:23:12.112Z,6.20
2023-04-03T01:25:47.455Z,6.32
2023-04-03T01:28:37.174Z,6.73
2023-04-03T01:31:13.837Z,6.85
2023-04-03T01:33:41.717Z,6.63
2023-04-03T01:36:09.439Z,6.44
2023-04-03T01:38:37.054Z,6.87
2023-04-03T01:41:04.430Z,6.48
2023-04-03T01:43:32.200Z,6.11
2023-04-03T01:45:59.779Z,6.28
2023-04-03T01:48:27.174Z,6.58
2023-04-03T01:50:55.320Z,6.57
2023-04-03T01:53:22.798Z,6.07
2023-04-03T01:55:50.376Z,6.40
2023-04-03T01:58:18.049Z,5.94
2023-04-03T02:00:45.672Z,6.16
2023-04-03T02:03:13.316Z,6.11
2023-04-03T02:05:40.885Z,6.02
2023-04-03T02:08:08.421Z,5.69
2023-04-03T02:10:36.382Z,6.40
2023-04-03T02:13:03.830Z,5.81
2023-04-03T02:15:31.942Z,5.91
2023-04-03T02:17:59.572Z,5.84
2023-04-03T02:20:27.525Z,5.78
2023-04-03T02:22:54.907Z,5.74
2023-04-03T02:25:22.540Z,5.76
2023-04-03T02:27:49.933Z,6.09
2023-04-03T02:30:17.344Z,5.69
2023-04-03T02:32:45.152Z,6.11
2023-04-03T02:35:12.618Z,5.61
2023-04-03T02:37:40.132Z,5.75
2023-04-03T02:40:09.186Z,5.83
2023-04-03T02:42:37.107Z,5.87
2023-04-03T02:45:04.829Z,6.06
2023-04-03T02:47:32.492Z,6.06
2023-04-03T02:49:59.956Z,5.66
2023-04-03T02:52:27.301Z,5.64
2023-04-03T02:54:55.055Z,5.80
2023-04-03T02:57:22.649Z,5.68
2023-04-03T02:59:50.065Z,5.46
2023-04-03T03:02:17.670Z,5.23
2023-04-03T03:04:45.052Z,5.20
2023-04-03T03:07:12.403Z,5.43
2023-04-03T03:09:40.012Z,5.12
2023-04-03T03:12:07.377Z,5.31
2023-04-03T03:14:34.714Z,5.66
2023-04-03T03:17:02.377Z,5.32
2023-04-03T03:19:29.752Z,5.54
2023-04-03T03:21:58.018Z,5.68
2023-04-03T03:24:25.870Z,4.93
2023-04-03T03:26:53.176Z,4.93
2023-04-03T03:29:21.062Z,5.18
2023-04-03T03:31:48.854Z,4.92
2023-04-03T03:34:16.256Z,4.90
2023-04-03T03:36:43.591Z,4.84
2023-04-03T03:39:11.235Z,5.19
2023-04-03T03:41:38.591Z,5.56
2023-04-03T03:44:06.403Z,5.39
2023-04-03T03:46:34.183Z,4.76
2023-04-03T03:49:01.563Z,5.23
2023-04-03T03:51:29.088Z,5.82
2023-04-03T03:53:57.801Z,5.13
2023-04-03T03:56:25.164Z,5.71
2023-04-03T03:58:53.483Z,5.98
2023-04-03T04:01:23.330Z,5.67
2023-04-03T04:03:51.142Z,6.29
2023-04-03T04:06:18.894Z,6.06
2023-04-03T04:08:46.471Z,6.10
2023-04-03T04:11:14.336Z,5.72
2023-04-03T04:13:41.856Z,5.46
2023-04-03T04:16:09.695Z,4.96
2023-04-03T04:18:37.339Z,5.18
2023-04-03T04:21:04.729Z,5.46
2023-04-03T04:23:32.279Z,5.53
2023-04-03T04:26:00.332Z,5.69
2023-04-03T04:28:28.435Z,6.03
2023-04-03T04:30:57.570Z,6.08
2023-04-03T04:33:26.538Z,5.81
2023-04-03T04:35:54.411Z,5.71
2023-04-03T04:38:22.596Z,5.20
2023-04-03T04:40:51.975Z,5.33
2023-04-03T04:43:19.696Z,5.07
2023-04-03T04:45:47.805Z,4.76
2023-04-03T04:48:17.529Z,5.34
2023-04-03T04:50:44.944Z,5.36
2023-04-03T04:53:12.386Z,4.69
2023-04-03T04:55:40.105Z,4.86
2023-04-03T04:58:07.806Z,5.00
2023-04-03T05:00:36.280Z,5.22
2023-04-03T05:03:04.187Z,4.64
2023-04-03T05:05:32.119Z,4.66
2023-04-03T05:07:59.579Z,4.65
2023-04-03T05:10:27.179Z,4.65
2023-04-03T05:12:54.562Z,4.63
2023-04-03T05:15:21.973Z,4.83
2023-04-03T05:17:49.879Z,4.58
2023-04-03T05:20:17.843Z,5.27
2023-04-03T05:22:46.178Z,4.94
2023-04-03T05:25:14.430Z,5.41
2023-04-03T05:27:42.666Z,5.52
2023-04-03T05:30:10.246Z,4.64
2023-04-03T05:32:38.486Z,5.11
2023-04-03T05:35:07.480Z,5.43
2023-04-03T05:37:35.544Z,4.67
2023-04-03T05:40:05.345Z,5.32
2023-04-03T05:42:33.066Z,5.14
2023-04-03T05:45:00.983Z,4.96
2023-04-03T05:47:28.648Z,4.94
2023-04-03T05:49:56.553Z,5.28
2023-04-03T05:52:28.883Z,5.63
2023-04-03T05:54:56.735Z,4.83
2023-04-03T05:57:24.662Z,5.26
2023-04-03T05:59:52.334Z,5.57
2023-04-03T06:02:21.772Z,5.50
2023-04-03T06:04:49.950Z,5.68
2023-04-03T06:07:24.461Z,5.85
2023-04-03T06:09:54.992Z,5.93
2023-04-03T06:12:22.787Z,5.73
2023-04-03T06:14:50.151Z,5.51
2023-04-03T06:17:18.996Z,5.79
2023-04-03T06:19:46.601Z,5.90
2023-04-03T06:22:14.254Z,6.08
2023-04-03T06:24:41.896Z,6.17
2023-04-03T06:27:10.795Z,5.95
2023-04-03T06:29:38.178Z,5.86
2023-04-03T06:32:05.926Z,6.13
2023-04-03T06:34:33.383Z,5.96
2023-04-03T06:37:00.962Z,6.29
2023-04-03T06:39:28.606Z,6.32
2023-04-03T06:41:56.234Z,6.18
2023-04-03T06:44:26.477Z,6.19
2023-04-03T06:46:55.318Z,5.74
2023-04-03T06:49:22.804Z,5.46
2023-04-03T06:51:50.583Z,5.65
2023-04-03T06:54:18.250Z,6.24
2023-04-03T06:56:45.833Z,6.63
2023-04-03T06:59:14.526Z,6.55
2023-04-03T07:01:42.931Z,6.44
2023-04-03T07:04:10.440Z,6.68
2023-04-03T07:06:37.864Z,6.51
2023-04-03T07:09:08.652Z,6.63
2023-04-03T07:11:37.202Z,7.02
2023-04-03T07:14:04.838Z,7.58
2023-04-03T07:16:32.232Z,7.58
2023-04-03T07:18:59.815Z,8.43
2023-04-03T07:21:27.477Z,8.17
2023-04-03T07:23:55.337Z,7.78
2023-04-03T07:26:23.282Z,8.24
2023-04-03T07:28:51.013Z,8.16
2023-04-03T07:31:19.421Z,8.93
2023-04-03T07:33:46.888Z,8.83
2023-04-03T07:36:16.906Z,9.18
2023-04-03T07:38:44.322Z,8.96
2023-04-03T07:41:19.099Z,8.66
2023-04-03T07:43:47.565Z,8.37
2023-04-03T07:46:15.120Z,7.59
2023-04-03T07:48:42.699Z,9.03
2023-04-03T07:51:10.699Z,9.38
2023-04-03T07:53:38.064Z,9.26
2023-04-03T07:56:05.864Z,9.63
2023-04-03T07:58:33.962Z,9.92
2023-04-03T08:01:01.538Z,9.69
2023-04-03T08:03:29.421Z,10.16
2023-04-03T08:06:03.232Z,9.94
2023-04-03T08:08:31.016Z,9.81
2023-04-03T08:10:58.960Z,9.95
2023-04-03T08:13:26.584Z,9.74
2023-04-03T08:15:54.213Z,9.66
2023-04-03T08:18:22.800Z,9.89
2023-04-03T08:20:50.159Z,9.62
2023-04-03T08:23:19.871Z,9.97
2023-04-03T08:25:47.580Z,9.77
2023-04-03T08:28:14.938Z,10.70
2023-04-03T08:30:43.386Z,9.72
2023-04-03T08:33:11.343Z,10.01
2023-04-03T08:35:42.438Z,9.76
2023-04-03T08:38:10.737Z,9.22
2023-04-03T08:40:38.543Z,9.73
2023-04-03T08:43:31.359Z,10.69
2023-04-03T08:45:59.063Z,9.51
2023-04-03T08:48:33.989Z,9.20
2023-04-03T08:51:12.176Z,10.25
2023-04-03T08:53:41.681Z,10.88
2023-04-03T08:56:10.388Z,9.98
2023-04-03T08:59:09.300Z,10.83
2023-04-03T09:01:38.519Z,10.23
2023-04-03T09:04:14.073Z,11.02
2023-04-03T09:06:43.933Z,10.52
2023-04-03T09:09:34.660Z,10.55
2023-04-03T09:12:10.079Z,11.13
2023-04-03T09:14:58.470Z,12.04
2023-04-03T09:17:40.598Z,11.12
2023-04-03T09:20:46.129Z,12.34
2023-04-03T09:23:15.170Z,12.03
2023-04-03T09:25:42.635Z,12.47
2023-04-03T09:28:11.064Z,12.33
2023-04-03T09:30:39.477Z,11.26
2023-04-03T09:33:08.261Z,11.82
2023-04-03T09:35:47.394Z,12.28
2023-04-03T09:38:18.472Z,13.13
2023-04-03T09:40:52.763Z,13.37
2023-04-03T09:43:23.743Z,12.57
2023-04-03T09:45:51.747Z,13.04
2023-04-03T09:48:21.176Z,11.39
2023-04-03T09:50:51.780Z,11.61
2023-04-03T09:53:40.888Z,11.50
2023-04-03T09:56:17.282Z,11.75
2023-04-03T09:58:51.859Z,13.85
2023-04-03T10:01:32.881Z,14.06
2023-04-03T10:04:13.694Z,13.27
2023-04-03T10:06:48.943Z,13.04
2023-04-03T10:09:28.862Z,13.81
2023-04-03T10:12:06.923Z,13.78
2023-04-03T10:14:35.764Z,13.37
2023-04-03T10:17:26.778Z,13.58
2023-04-03T10:20:18.680Z,12.87
2023-04-03T10:22:52.338Z,12.16
2023-04-03T10:25:30.434Z,11.71
2023-04-03T10:28:08.420Z,11.78
2023-04-03T10:30:58.331Z,10.58
2023-04-03T10:33:50.394Z,11.28
2023-04-03T10:36:46.268Z,11.44
2023-04-03T10:39:41.085Z,10.99
2023-04-03T10:42:17.636Z,11.51
2023-04-03T10:45:16.607Z,10.83
2023-04-03T10:48:14.398Z,10.85
2023-04-03T10:51:02.699Z,10.98
2023-04-03T10:53:38.835Z,11.19
2023-04-03T10:56:18.709Z,10.58
2023-04-03T10:58:49.475Z,10.67
2023-04-03T11:01:22.048Z,9.57
2023-04-03T11:03:52.851Z,10.23
2023-04-03T11:06:20.891Z,10.60
2023-04-03T11:08:58.097Z,9.95
2023-04-03T11:11:28.233Z,10.64
2023-04-03T11:14:24.513Z,9.80
2023-04-03T11:17:11.190Z,10.15
2023-04-03T11:19:44.741Z,9.94
2023-04-03T11:22:15.027Z,10.06
2023-04-03T11:24:43.414Z,9.54
2023-04-03T11:27:17.761Z,10.25
2023-04-03T11:29:46.492Z,10.96
2023-04-03T11:32:38.037Z,10.77
2023-04-03T11:35:06.251Z,10.56
2023-04-03T11:37:38.862Z,10.48
2023-04-03T11:40:33.329Z,10.86
2023-04-03T11:43:00.536Z,11.40
2023-04-03T11:45:35.817Z,11.07
2023-04-03T11:48:20.775Z,11.31
2023-04-03T11:50:51.386Z,11.37
2023-04-03T11:53:29.345Z,11.36
2023-04-03T11:56:01.355Z,11.13
2023-04-03T11:58:31.010Z,11.62
2023-04-03T12:01:40.137Z,11.45
2023-04-03T12:04:10.068Z,10.93
2023-04-03T12:06:37.559Z,11.12
2023-04-03T12:09:16.861Z,11.32
2023-04-03T12:11:44.503Z,11.12
2023-04-03T12:14:16.617Z,11.09
2023-04-03T12:16:46.877Z,11.62
2023-04-03T12:22:13.188Z,11.08
2023-04-03T12:24:45.108Z,11.03
2023-04-03T12:27:25.675Z,11.80
2023-04-03T12:30:05.314Z,11.60
2023-04-03T12:32:43.134Z,11.76
2023-04-03T12:35:26.105Z,11.85
2023-04-03T12:38:15.575Z,11.52
2023-04-03T12:40:42.856Z,11.84
2023-04-03T12:43:23.581Z,12.04
2023-04-03T12:45:53.634Z,11.89
2023-04-03T12:48:25.545Z,11.96
2023-04-03T12:50:52.939Z,11.71
2023-04-03T12:53:23.478Z,12.48
2023-04-03T12:56:29.552Z,11.45
2023-04-03T12:59:24.671Z,11.48
2023-04-03T13:01:59.208Z,11.75
2023-04-03T13:04:28.416Z,12.26
2023-04-03T13:06:55.848Z,11.77
2023-04-03T13:09:28.739Z,12.77
2023-04-03T13:12:12.364Z,12.93
2023-04-03T13:14:39.790Z,12.80
2023-04-03T13:17:12.998Z,12.62
2023-04-03T13:19:40.707Z,13.30
2023-04-03T13:22:34.005Z,12.68
2023-04-03T13:25:04.076Z,12.42
2023-04-03T13:27:31.834Z,12.49
2023-04-03T13:30:00.494Z,13.04
2023-04-03T13:32:28.515Z,12.99
2023-04-03T13:34:58.284Z,12.83
2023-04-03T13:37:29.904Z,12.07
2023-04-03T13:40:13.040Z,12.64
2023-04-03T13:42:42.256Z,11.61
2023-04-03T13:45:18.161Z,12.89
2023-04-03T13:47:46.319Z,13.38
2023-04-03T13:50:26.316Z,13.26
2023-04-03T13:53:04.588Z,13.30
2023-04-03T13:55:34.553Z,13.49
2023-04-03T13:58:08.601Z,13.10
2023-04-03T14:00:51.521Z,12.63
2023-04-03T14:03:29.532Z,11.55
2023-04-03T14:05:57.192Z,11.54
2023-04-03T14:08:36.096Z,10.79
2023-04-03T14:11:21.816Z,10.73
2023-04-03T14:13:49.528Z,11.10
2023-04-03T14:16:19.179Z,10.40
2023-04-03T14:18:47.274Z,11.00
2023-04-03T14:21:16.105Z,11.07
2023-04-03T14:23:43.518Z,11.26
2023-04-03T14:26:17.453Z,10.69
2023-04-03T14:28:46.171Z,10.25
2023-04-03T14:31:14.032Z,10.36
2023-04-03T14:33:41.634Z,10.37
2023-04-03T14:36:16.998Z,10.02
2023-04-03T14:38:44.758Z,10.21
2023-04-03T14:41:17.157Z,9.98
2023-04-03T14:43:45.443Z,10.05
2023-04-03T14:46:18.708Z,10.20
2023-04-03T14:48:46.134Z,9.91
2023-04-03T14:51:14.120Z,10.13
2023-04-03T14:53:42.960Z,10.18
2023-04-03T14:56:18.605Z,9.65
2023-04-03T14:58:50.275Z,9.63
2023-04-03T15:01:18.506Z,9.79
2023-04-03T15:03:46.273Z,9.82
2023-04-03T15:06:14.272Z,9.93
2023-04-03T15:08:43.077Z,9.97
2023-04-03T15:11:11.278Z,9.81
2023-04-03T15:13:39.172Z,9.59
2023-04-03T15:16:07.306Z,9.85
2023-04-03T15:18:38.621Z,9.39
2023-04-03T15:21:06.337Z,9.46
2023-04-03T15:23:33.704Z,9.52
2023-04-03T15:26:01.338Z,9.48
2023-04-03T15:28:33.815Z,9.86
2023-04-03T15:31:01.433Z,9.62
2023-04-03T15:33:28.969Z,9.36
2023-04-03T15:36:06.466Z,9.45
2023-04-03T15:38:35.758Z,9.79
2023-04-03T15:41:03.137Z,9.24
2023-04-03T15:43:30.671Z,9.44
2023-04-03T15:45:58.535Z,9.55
2023-04-03T15:48:26.142Z,9.01
2023-04-03T15:50:53.464Z,8.99
2023-04-03T15:53:21.102Z,8.90
2023-04-03T15:55:48.498Z,9.02
2023-04-03T15:58:15.928Z,9.09
2023-04-03T16:00:43.538Z,9.10
2023-04-03T16:03:13.596Z,8.88
2023-04-03T16:05:41.205Z,9.19
2023-04-03T16:08:08.850Z,9.55
2023-04-03T16:10:37.280Z,9.18
2023-04-03T16:13:04.990Z,9.36
2023-04-03T16:15:32.592Z,9.14
2023-04-03T16:18:00.362Z,9.08
2023-04-03T16:20:27.725Z,9.13
2023-04-03T16:22:55.123Z,8.55
2023-04-03T16:25:22.730Z,8.77
2023-04-03T16:27:50.098Z,8.14
2023-04-03T16:30:17.543Z,8.80
2023-04-03T16:32:45.374Z,9.07
2023-04-03T16:35:12.831Z,8.63
2023-04-03T16:37:40.581Z,8.34
2023-04-03T16:40:08.735Z,8.99
2023-04-03T16:42:37.366Z,8.50
2023-04-03T16:45:06.947Z,8.61
2023-04-03T16:47:34.621Z,8.70
2023-04-03T16:50:02.197Z,8.57
2023-04-03T16:52:29.649Z,9.32
2023-04-03T16:54:59.300Z,9.04
2023-04-03T16:57:26.818Z,8.99
2023-04-03T16:59:55.206Z,8.85
2023-04-03T17:02:25.426Z,8.56
2023-04-03T17:04:53.758Z,8.67
2023-04-03T17:07:21.590Z,8.80
2023-04-03T17:09:49.239Z,9.12
2023-04-03T17:12:17.005Z,9.11
2023-04-03T17:14:44.402Z,8.99
2023-04-03T17:17:12.031Z,9.28
2023-04-03T17:19:39.403Z,9.70
2023-04-03T17:22:07.661Z,9.31
2023-04-03T17:24:35.413Z,9.68
2023-04-03T17:27:03.092Z,9.22
2023-04-03T17:29:30.438Z,9.21
2023-04-03T17:31:58.097Z,9.38
2023-04-03T17:34:25.418Z,8.80
2023-04-03T17:36:52.885Z,8.95
2023-04-03T17:39:20.789Z,8.53
2023-04-03T17:41:49.598Z,8.08
2023-04-03T17:44:16.968Z,8.01
2023-04-03T17:46:44.778Z,8.05
2023-04-03T17:49:15.039Z,8.40
2023-04-03T17:51:42.598Z,8.79
2023-04-03T17:54:10.235Z,8.77
2023-04-03T17:56:37.570Z,8.51
2023-04-03T17:59:05.006Z,8.31
2023-04-03T18:01:33.952Z,8.57
2023-04-03T18:04:03.160Z,8.21
2023-04-03T18:06:36.909Z,7.89
2023-04-03T18:09:09.959Z,7.99
2023-04-03T18:11:37.311Z,8.22
2023-04-03T18:14:05.299Z,8.05
2023-04-03T18:16:32.784Z,8.15
2023-04-03T18:19:17.612Z,8.36
2023-04-03T18:21:47.931Z,7.63
2023-04-03T18:24:17.026Z,7.51
2023-04-03T18:26:46.534Z,8.13
2023-04-03T18:29:14.173Z,7.97
2023-04-03T18:31:42.113Z,8.43
2023-04-03T18:34:09.476Z,8.25
2023-04-03T18:36:37.091Z,7.89
2023-04-03T18:39:04.462Z,7.41
2023-04-03T18:41:32.628Z,8.19
2023-04-03T18:44:01.502Z,8.39
2023-04-03T18:46:28.881Z,8.80
2023-04-03T18:48:56.237Z,8.24
2023-04-03T18:51:23.828Z,8.32
2023-04-03T18:53:51.221Z,7.55
2023-04-03T18:56:18.597Z,8.38
2023-04-03T18:58:46.220Z,8.19
2023-04-03T19:01:14.227Z,7.80
2023-04-03T19:03:41.786Z,7.82
2023-04-03T19:06:09.453Z,7.27
2023-04-03T19:08:36.874Z,7.17
2023-04-03T19:11:04.359Z,7.04
2023-04-03T19:13:32.660Z,7.76
2023-04-03T19:16:00.168Z,7.66
2023-04-03T19:18:27.613Z,7.30
2023-04-03T19:20:56.338Z,7.06
2023-04-03T19:23:24.110Z,7.02
2023-04-03T19:26:01.886Z,6.83
2023-04-03T19:28:29.596Z,6.75
2023-04-03T19:30:58.242Z,7.13
2023-04-03T19:33:25.699Z,6.80
2023-04-03T19:35:53.341Z,6.79
2023-04-03T19:38:20.733Z,6.76
2023-04-03T19:40:48.082Z,6.61
2023-04-03T19:43:16.258Z,6.46
2023-04-03T19:45:44.265Z,6.96
2023-04-03T19:48:11.830Z,6.51
2023-04-03T19:50:39.575Z,6.62
2023-04-03T19:53:08.677Z,5.96
2023-04-03T19:55:36.488Z,5.75
2023-04-03T19:58:04.286Z,6.59
2023-04-03T20:00:31.745Z,6.27
2023-04-03T20:02:59.485Z,6.47
2023-04-03T20:05:26.910Z,6.09
2023-04-03T20:07:54.269Z,6.10
2023-04-03T20:10:21.852Z,6.68
2023-04-03T20:12:50.321Z,5.82
2023-04-03T20:15:17.917Z,5.70
2023-04-03T20:17:45.626Z,6.39
2023-04-03T20:20:13.641Z,6.65
2023-04-03T20:22:41.097Z,6.18
2023-04-03T20:25:10.610Z,6.12
2023-04-03T20:27:39.584Z,6.32
2023-04-03T20:30:08.903Z,6.25
2023-04-03T20:32:36.530Z,6.20
2023-04-03T20:35:04.893Z,6.13
2023-04-03T20:37:32.620Z,6.56
2023-04-03T20:40:00.498Z,5.80
2023-04-03T20:42:27.909Z,6.28
2023-04-03T20:44:57.260Z,6.92
2023-04-03T20:47:25.112Z,6.26
2023-04-03T20:49:53.709Z,6.59
2023-04-03T20:52:21.379Z,6.30
2023-04-03T20:54:49.003Z,6.06
2023-04-03T20:57:16.348Z,5.91
2023-04-03T20:59:43.782Z,5.80
2023-04-03T21:02:12.636Z,6.05
2023-04-03T21:04:46.566Z,5.62
2023-04-03T21:07:52.293Z,5.68
2023-04-03T21:10:57.169Z,5.70
2023-04-03T21:14:02.567Z,5.85
2023-04-03T21:16:30.352Z,5.29
2023-04-03T21:19:15.865Z,5.15
2023-04-03T21:21:45.873Z,4.90
2023-04-03T21:24:13.987Z,4.72
2023-04-03T21:26:41.699Z,5.39
2023-04-03T21:29:09.039Z,5.79
2023-04-03T21:31:59.605Z,5.92
2023-04-03T21:34:28.554Z,6.15
2023-04-03T21:37:06.320Z,5.94
2023-04-03T21:39:33.770Z,5.65
2023-04-03T21:42:01.873Z,5.68
2023-04-03T21:44:29.544Z,5.98
2023-04-03T21:46:56.918Z,5.76
2023-04-03T21:49:24.913Z,5.34
2023-04-03T21:51:52.600Z,5.63
2023-04-03T21:54:20.498Z,5.25
2023-04-03T21:56:49.414Z,5.41
2023-04-03T21:59:16.945Z,5.40
2023-04-03T22:01:44.395Z,5.44
2023-04-03T22:04:12.559Z,5.15
2023-04-03T22:06:39.986Z,4.87
2023-04-03T22:09:08.022Z,5.16
2023-04-03T22:11:38.112Z,5.50
2023-04-03T22:14:05.430Z,4.90
2023-04-03T22:16:32.847Z,5.08
2023-04-03T22:19:01.416Z,4.71
2023-04-03T22:21:28.828Z,5.15
2023-04-03T22:23:56.170Z,5.45
2023-04-03T22:26:23.777Z,5.56
2023-04-03T22:28:51.176Z,5.15
2023-04-03T22:31:19.266Z,5.45
2023-04-03T22:33:46.938Z,5.60
2023-04-03T22:36:14.362Z,6.14
2023-04-03T22:38:44.935Z,5.72
2023-04-03T22:41:12.632Z,6.05
2023-04-03T22:43:40.274Z,6.27
2023-04-03T22:46:11.273Z,5.95
2023-04-03T22:48:42.297Z,6.11
2023-04-03T22:51:09.855Z,5.23
2023-04-03T22:53:37.371Z,5.75
2023-04-03T22:56:08.575Z,5.99
2023-04-03T22:58:35.999Z,5.94
2023-04-03T23:01:08.938Z,5.84
2023-04-03T23:03:37.020Z,5.47
2023-04-03T23:06:04.995Z,5.61
2023-04-03T23:08:34.483Z,5.83
2023-04-03T23:11:02.487Z,6.01
2023-04-03T23:13:29.985Z,6.03
2023-04-03T23:15:58.656Z,6.21
2023-04-03T23:18:26.900Z,5.50
2023-04-03T23:20:55.071Z,6.17
2023-04-03T23:23:23.563Z,5.90
2023-04-03T23:25:54.841Z,5.67
2023-04-03T23:28:22.868Z,6.31
2023-04-03T23:30:52.686Z,6.05
2023-04-03T23:33:20.373Z,5.38
2023-04-03T23:35:52.101Z,6.14
2023-04-03T23:38:19.746Z,6.04
2023-04-03T23:40:47.264Z,5.90
2023-04-03T23:43:14.643Z,5.17
2023-04-03T23:45:42.473Z,5.03
2023-04-03T23:48:09.981Z,4.65
2023-04-03T23:50:37.512Z,5.01
2023-04-03T23:53:05.443Z,4.77
2023-04-03T23:55:33.096Z,5.11
2023-04-03T23:58:00.545Z,5.49
